createdAt,value
2022-12-14T00:00:25.482Z,98744.47
2022-12-14T00:02:57.315Z,98759.94
2022-12-14T00:05:29.111Z,98759.16
2022-12-14T00:08:01.240Z,98755.69
2022-12-14T00:10:34.314Z,98747.94
2022-12-14T00:13:07.403Z,98747.03
2022-12-14T00:15:39.095Z,98753.22
2022-12-14T00:18:11.725Z,98744.84
2022-12-14T00:20:43.433Z,98737.84
2022-12-14T00:23:15.152Z,98747.00
2022-12-14T00:25:48.840Z,98736.84
2022-12-14T00:28:20.818Z,98729.22
2022-12-14T00:30:58.646Z,98739.34
2022-12-14T00:33:30.803Z,98737.41
2022-12-14T00:36:03.431Z,98722.56
2022-12-14T00:38:35.621Z,98716.44
2022-12-14T00:41:07.799Z,98713.97
2022-12-14T00:43:39.990Z,98707.84
2022-12-14T00:46:11.693Z,98700.84
2022-12-14T00:48:43.498Z,98695.72
2022-12-14T00:51:15.299Z,98693.03
2022-12-14T00:53:47.116Z,98689.66
2022-12-14T00:56:21.941Z,98689.66
2022-12-14T00:58:54.370Z,98688.91
2022-12-14T01:01:26.996Z,98695.31
2022-12-14T01:04:22.495Z,98689.16
2022-12-14T01:06:54.761Z,98692.06
2022-12-14T01:09:26.886Z,98695.53
2022-12-14T01:11:58.509Z,98691.47
2022-12-14T01:14:30.145Z,98694.09
2022-12-14T01:17:02.058Z,98690.09
2022-12-14T01:19:34.677Z,98683.00
2022-12-14T01:22:10.379Z,98681.03
2022-12-14T01:24:46.465Z,98683.31
2022-12-14T01:27:42.755Z,98679.91
2022-12-14T01:30:14.561Z,98676.53
2022-12-14T01:32:47.357Z,98680.75
2022-12-14T01:35:19.816Z,98676.53
2022-12-14T01:37:51.538Z,98675.50
2022-12-14T01:40:23.166Z,98676.22
2022-12-14T01:42:54.813Z,98668.47
2022-12-14T01:45:26.756Z,98675.31
2022-12-14T01:48:02.964Z,98673.47
2022-12-14T01:50:41.296Z,98671.84
2022-12-14T01:53:18.260Z,98672.53
2022-12-14T01:55:54.522Z,98678.88
2022-12-14T01:58:28.881Z,98670.50
2022-12-14T02:01:02.461Z,98671.31
2022-12-14T02:03:43.302Z,98667.69
2022-12-14T02:06:26.550Z,98658.38
2022-12-14T02:08:58.293Z,98658.13
2022-12-14T02:11:44.005Z,98654.97
2022-12-14T02:14:15.762Z,98644.53
2022-12-14T02:16:54.094Z,98650.50
2022-12-14T02:19:25.799Z,98638.44
2022-12-14T02:22:38.673Z,98638.88
2022-12-14T02:25:35.102Z,98628.72
2022-12-14T02:28:34.303Z,98631.19
2022-12-14T02:31:11.679Z,98622.34
2022-12-14T02:34:10.441Z,98635.03
2022-12-14T02:36:50.597Z,98626.13
2022-12-14T02:40:00.203Z,98614.63
2022-12-14T02:43:06.881Z,98615.13
2022-12-14T02:45:54.677Z,98609.94
2022-12-14T02:48:33.732Z,98604.03
2022-12-14T02:51:40.838Z,98605.88
2022-12-14T02:54:49.139Z,98598.75
2022-12-14T02:57:26.989Z,98598.53
2022-12-14T03:00:02.448Z,98593.69
2022-12-14T03:02:37.710Z,98591.38
2022-12-14T03:05:13.748Z,98591.03
2022-12-14T03:07:53.195Z,98590.66
2022-12-14T03:10:30.732Z,98589.69
2022-12-14T03:13:13.070Z,98594.88
2022-12-14T03:15:50.612Z,98583.78
2022-12-14T03:18:26.470Z,98571.97
2022-12-14T03:21:01.036Z,98568.41
2022-12-14T03:23:36.425Z,98582.53
2022-12-14T03:26:16.191Z,98587.56
2022-12-14T03:29:01.734Z,98582.81
2022-12-14T03:31:58.860Z,98570.13
2022-12-14T03:34:57.832Z,98567.56
2022-12-14T03:37:48.775Z,98552.84
2022-12-14T03:40:33.833Z,98563.53
2022-12-14T03:43:38.370Z,98554.94
2022-12-14T03:46:15.846Z,98551.97
2022-12-14T03:48:52.031Z,98560.66
2022-12-14T03:51:57.847Z,98557.84
2022-12-14T03:54:44.509Z,98542.81
2022-12-14T03:57:59.542Z,98532.53
2022-12-14T04:00:40.239Z,98530.44
2022-12-14T04:03:35.405Z,98532.59
2022-12-14T04:06:14.697Z,98535.50
2022-12-14T04:09:10.984Z,98534.59
2022-12-14T04:12:07.659Z,98531.91
2022-12-14T04:15:10.200Z,98532.09
2022-12-14T04:18:03.163Z,98535.72
2022-12-14T04:20:49.469Z,98528.69
2022-12-14T04:23:47.098Z,98529.84
2022-12-14T04:26:26.280Z,98522.00
2022-12-14T04:29:21.857Z,98521.44
2022-12-14T04:31:58.846Z,98513.81
2022-12-14T04:34:35.080Z,98512.13
2022-12-14T04:37:14.349Z,98501.03
2022-12-14T04:40:05.432Z,98494.84
2022-12-14T04:42:45.319Z,98493.78
2022-12-14T04:45:34.471Z,98497.75
2022-12-14T04:48:25.500Z,98485.81
2022-12-14T04:51:13.660Z,98484.41
2022-12-14T04:53:49.187Z,98479.09
2022-12-14T04:56:29.756Z,98477.38
2022-12-14T04:59:01.627Z,98477.28
2022-12-14T05:01:49.174Z,98476.47
2022-12-14T05:04:29.800Z,98471.09
2022-12-14T05:07:20.227Z,98466.28
2022-12-14T05:10:03.844Z,98468.19
2022-12-14T05:12:52.590Z,98467.94
2022-12-14T05:15:32.037Z,98454.53
2022-12-14T05:18:05.344Z,98455.75
2022-12-14T05:20:36.989Z,98471.09
2022-12-14T05:23:08.729Z,98469.84
2022-12-14T05:25:40.457Z,98462.47
2022-12-14T05:28:12.549Z,98448.31
2022-12-14T05:30:48.849Z,98440.28
2022-12-14T05:33:21.188Z,98447.16
2022-12-14T05:35:53.297Z,98434.31
2022-12-14T05:38:24.973Z,98430.16
2022-12-14T05:40:56.653Z,98426.88
2022-12-14T05:43:28.581Z,98420.31
2022-12-14T05:46:05.621Z,98419.59
2022-12-14T05:48:37.406Z,98411.88
2022-12-14T05:51:11.249Z,98410.53
2022-12-14T05:53:43.032Z,98412.03
2022-12-14T05:56:14.772Z,98403.16
2022-12-14T05:58:50.864Z,98400.06
2022-12-14T06:01:22.670Z,98400.63
2022-12-14T06:03:54.439Z,98409.28
2022-12-14T06:06:26.311Z,98400.97
2022-12-14T06:08:57.941Z,98400.63
2022-12-14T06:11:29.957Z,98401.13
2022-12-14T06:14:02.797Z,98403.25
2022-12-14T06:16:35.334Z,98394.81
2022-12-14T06:19:07.688Z,98385.91
2022-12-14T06:21:41.343Z,98388.13
2022-12-14T06:24:14.228Z,98372.34
2022-12-14T06:26:46.815Z,98378.13
2022-12-14T06:29:20.120Z,98365.22
2022-12-14T06:31:51.790Z,98357.50
2022-12-14T06:34:28.322Z,98357.16
2022-12-14T06:37:01.729Z,98350.25
2022-12-14T06:39:33.276Z,98366.31
2022-12-14T06:42:05.763Z,98357.69
2022-12-14T06:44:37.534Z,98361.56
2022-12-14T06:47:09.119Z,98362.41
2022-12-14T06:49:40.687Z,98377.63
2022-12-14T06:52:12.400Z,98363.03
2022-12-14T06:54:47.014Z,98359.72
2022-12-14T06:57:18.692Z,98358.66
2022-12-14T06:59:50.305Z,98353.19
2022-12-14T07:02:22.071Z,98359.72
2022-12-14T07:04:53.782Z,98363.94
2022-12-14T07:07:28.423Z,98361.09
2022-12-14T07:10:00.915Z,98356.44
2022-12-14T07:12:32.574Z,98350.72
2022-12-14T07:15:04.851Z,98348.72
2022-12-14T07:17:37.435Z,98336.59
2022-12-14T07:20:10.097Z,98340.09
2022-12-14T07:22:41.755Z,98335.69
2022-12-14T07:25:13.379Z,98346.28
2022-12-14T07:27:45.483Z,98345.94
2022-12-14T07:30:17.031Z,98344.94
2022-12-14T07:32:48.638Z,98345.22
2022-12-14T07:35:23.055Z,98344.31
2022-12-14T07:37:54.678Z,98343.47
2022-12-14T07:40:26.231Z,98342.72
2022-12-14T07:42:57.790Z,98339.69
2022-12-14T07:45:33.567Z,98340.78
2022-12-14T07:48:07.343Z,98339.50
2022-12-14T07:50:38.928Z,98334.44
2022-12-14T07:53:10.624Z,98340.78
2022-12-14T07:55:42.159Z,98335.84
2022-12-14T07:58:13.861Z,98333.66
2022-12-14T08:00:45.439Z,98332.69
2022-12-14T08:03:17.005Z,98331.03
2022-12-14T08:05:50.775Z,98330.50
2022-12-14T08:08:25.216Z,98322.69
2022-12-14T08:10:56.792Z,98319.63
2022-12-14T08:13:28.893Z,98317.34
2022-12-14T08:16:06.206Z,98319.63
2022-12-14T08:18:41.257Z,98320.25
2022-12-14T08:21:15.353Z,98306.59
2022-12-14T08:23:47.494Z,98315.56
2022-12-14T08:26:19.536Z,98306.16
2022-12-14T08:28:51.135Z,98306.72
2022-12-14T08:31:24.985Z,98306.75
2022-12-14T08:33:59.301Z,98304.63
2022-12-14T08:36:35.674Z,98294.25
2022-12-14T08:39:10.034Z,98291.38
2022-12-14T08:41:41.987Z,98288.75
2022-12-14T08:44:16.968Z,98282.69
2022-12-14T08:46:48.925Z,98278.97
2022-12-14T08:49:20.920Z,98275.16
2022-12-14T08:51:52.646Z,98274.97
2022-12-14T08:54:24.328Z,98280.53
2022-12-14T08:56:55.971Z,98271.91
2022-12-14T08:59:59.704Z,98276.97
2022-12-14T09:02:19.535Z,98275.13
2022-12-14T09:04:51.716Z,98273.25
2022-12-14T09:07:24.637Z,98274.91
2022-12-14T09:09:56.318Z,98274.91
2022-12-14T09:12:28.656Z,98272.94
2022-12-14T09:15:01.131Z,98268.94
2022-12-14T09:17:33.811Z,98256.25
2022-12-14T09:20:06.533Z,98250.56
2022-12-14T09:22:41.178Z,98242.84
2022-12-14T09:25:15.996Z,98243.94
2022-12-14T09:27:47.653Z,98242.84
2022-12-14T09:30:26.236Z,98238.38
2022-12-14T09:32:58.284Z,98229.97
2022-12-14T09:35:29.883Z,98228.50
2022-12-14T09:38:01.563Z,98223.03
2022-12-14T09:40:34.200Z,98227.41
2022-12-14T09:43:10.544Z,98222.53
2022-12-14T09:45:54.950Z,98226.44
2022-12-14T09:48:27.172Z,98225.53
2022-12-14T09:50:59.415Z,98221.00
2022-12-14T09:53:31.526Z,98223.69
2022-12-14T09:56:15.019Z,98214.63
2022-12-14T09:58:54.486Z,98208.41
2022-12-14T10:02:13.937Z,98191.44
2022-12-14T10:05:08.720Z,98185.13
2022-12-14T10:07:46.487Z,98170.16
2022-12-14T10:10:28.966Z,98173.25
2022-12-14T10:13:18.730Z,98161.41
2022-12-14T10:16:08.585Z,98171.06
2022-12-14T10:19:00.964Z,98180.88
2022-12-14T10:21:39.015Z,98186.53
2022-12-14T10:24:17.754Z,98183.41
2022-12-14T10:26:54.959Z,98176.38
2022-12-14T10:29:40.702Z,98170.38
2022-12-14T10:32:22.532Z,98152.50
2022-12-14T10:34:54.181Z,98153.91
2022-12-14T10:37:38.452Z,98136.69
2022-12-14T10:40:30.774Z,98122.03
2022-12-14T10:43:33.743Z,98116.97
2022-12-14T10:46:14.251Z,98116.50
2022-12-14T10:48:53.923Z,98110.91
2022-12-14T10:51:31.659Z,98113.72
2022-12-14T10:54:15.567Z,98124.31
2022-12-14T10:56:50.020Z,98107.22
2022-12-14T10:59:21.795Z,98043.69
2022-12-14T11:02:03.545Z,97997.44
2022-12-14T11:04:56.493Z,98012.09
2022-12-14T11:07:34.117Z,98065.94
2022-12-14T11:10:22.347Z,98077.91
2022-12-14T11:12:53.821Z,98068.31
2022-12-14T11:15:47.045Z,98053.78
2022-12-14T11:18:19.779Z,98026.69
2022-12-14T11:20:57.623Z,98004.88
2022-12-14T11:23:45.949Z,97988.22
2022-12-14T11:26:42.265Z,98013.19
2022-12-14T11:29:21.551Z,98015.31
2022-12-14T11:31:53.356Z,98021.03
2022-12-14T11:34:40.685Z,98016.72
2022-12-14T11:37:22.918Z,98018.59
2022-12-14T11:39:58.516Z,98014.13
2022-12-14T11:42:31.085Z,97996.63
2022-12-14T11:45:25.896Z,97999.22
2022-12-14T11:48:11.093Z,98004.16
2022-12-14T11:50:45.095Z,98002.88
2022-12-14T11:53:19.436Z,98001.22
2022-12-14T11:55:56.148Z,97979.75
2022-12-14T11:58:32.326Z,97995.03
2022-12-14T12:01:16.891Z,98015.31
2022-12-14T12:03:52.184Z,98015.78
2022-12-14T12:06:29.882Z,98020.50
2022-12-14T12:09:03.700Z,98008.03
2022-12-14T12:11:35.909Z,98013.69
2022-12-14T12:14:22.532Z,98014.84
2022-12-14T12:16:54.186Z,98020.13
2022-12-14T12:19:37.181Z,98019.31
2022-12-14T12:22:11.913Z,97999.81
2022-12-14T12:25:16.691Z,98005.69
2022-12-14T12:27:49.238Z,98000.63
2022-12-14T12:30:28.593Z,97989.25
2022-12-14T12:33:18.280Z,97990.91
2022-12-14T12:36:00.001Z,97990.66
2022-12-14T12:38:55.991Z,97971.28
2022-12-14T12:41:39.893Z,97966.00
2022-12-14T12:44:34.515Z,97958.47
2022-12-14T12:47:26.791Z,97950.97
2022-12-14T12:50:24.574Z,97960.59
2022-12-14T12:53:17.362Z,97941.81
2022-12-14T12:55:57.087Z,97929.69
2022-12-14T12:58:35.806Z,97938.84
2022-12-14T13:01:23.243Z,97931.09
2022-12-14T13:04:03.195Z,97925.91
2022-12-14T13:06:46.271Z,97926.75
2022-12-14T13:09:30.237Z,97914.88
2022-12-14T13:12:03.369Z,97910.97
2022-12-14T13:14:41.219Z,97914.97
2022-12-14T13:17:41.582Z,97912.59
2022-12-14T13:20:27.085Z,97927.63
2022-12-14T13:23:15.172Z,97916.75
2022-12-14T13:26:56.632Z,97913.44
2022-12-14T13:29:26.274Z,97909.31
2022-12-14T13:32:04.115Z,97902.41
2022-12-14T13:35:00.320Z,97900.25
2022-12-14T13:37:51.194Z,97903.06
2022-12-14T13:40:35.756Z,97893.75
2022-12-14T13:43:35.727Z,97888.13
2022-12-14T13:46:15.054Z,97902.47
2022-12-14T13:48:50.260Z,97894.09
2022-12-14T13:51:35.317Z,97900.25
2022-12-14T13:54:27.762Z,97904.94
2022-12-14T13:57:14.542Z,97901.97
2022-12-14T13:59:50.156Z,97887.13
2022-12-14T14:02:27.648Z,97892.44
2022-12-14T14:05:14.662Z,97887.94
2022-12-14T14:07:51.761Z,97887.63
2022-12-14T14:10:32.229Z,97877.53
2022-12-14T14:13:29.112Z,97870.22
2022-12-14T14:16:38.800Z,97872.81
2022-12-14T14:19:20.743Z,97854.34
2022-12-14T14:22:26.576Z,97842.81
2022-12-14T14:25:01.230Z,97853.59
2022-12-14T14:27:37.787Z,97845.13
2022-12-14T14:30:31.006Z,97842.16
2022-12-14T14:33:43.075Z,97841.09
2022-12-14T14:36:18.629Z,97835.81
2022-12-14T14:38:51.065Z,97825.19
2022-12-14T14:41:31.967Z,97825.38
2022-12-14T14:44:08.136Z,97819.22
2022-12-14T14:46:45.870Z,97823.19
2022-12-14T14:49:40.232Z,97810.97
2022-12-14T14:52:42.863Z,97807.28
2022-12-14T14:58:42.826Z,97804.91
2022-12-14T15:01:28.578Z,97803.13
2022-12-14T15:04:18.454Z,97803.13
2022-12-14T15:07:01.817Z,97810.31
2022-12-14T15:09:40.005Z,97808.31
2022-12-14T15:12:33.081Z,97804.38
2022-12-14T15:15:16.609Z,97801.28
2022-12-14T15:17:48.396Z,97801.28
2022-12-14T15:20:29.607Z,97807.09
2022-12-14T15:23:05.971Z,97808.34
2022-12-14T15:25:37.645Z,97812.25
2022-12-14T15:28:22.154Z,97820.28
2022-12-14T15:31:01.908Z,97815.78
2022-12-14T15:33:44.854Z,97812.16
2022-12-14T15:36:26.261Z,97815.72
2022-12-14T15:38:59.015Z,97811.66
2022-12-14T15:41:33.237Z,97826.38
2022-12-14T15:44:23.517Z,97822.44
2022-12-14T15:46:55.363Z,97837.16
2022-12-14T15:49:27.516Z,97837.31
2022-12-14T15:51:59.502Z,97827.59
2022-12-14T15:54:34.620Z,97820.25
2022-12-14T15:57:19.104Z,97815.38
2022-12-14T15:59:55.026Z,97813.06
2022-12-14T16:02:31.826Z,97806.06
2022-12-14T16:05:03.922Z,97799.56
2022-12-14T16:07:42.035Z,97808.22
2022-12-14T16:10:33.173Z,97813.28
2022-12-14T16:13:14.323Z,97800.66
2022-12-14T16:15:46.658Z,97792.50
2022-12-14T16:18:21.364Z,97787.06
2022-12-14T16:21:02.760Z,97784.47
2022-12-14T16:23:45.525Z,97794.69
2022-12-14T16:26:34.728Z,97792.50
2022-12-14T16:29:22.804Z,97795.09
2022-12-14T16:32:00.227Z,97807.91
2022-12-14T16:34:35.892Z,97804.34
2022-12-14T16:37:32.307Z,97805.75
2022-12-14T16:40:03.836Z,97797.97
2022-12-14T16:42:38.722Z,97794.00
2022-12-14T16:45:36.159Z,97784.97
2022-12-14T16:48:19.480Z,97796.31
2022-12-14T16:51:03.653Z,97789.22
2022-12-14T16:53:56.847Z,97797.41
2022-12-14T16:56:32.664Z,97789.00
2022-12-14T16:59:37.390Z,97790.06
2022-12-14T17:02:32.057Z,97787.63
2022-12-14T17:05:17.729Z,97795.81
2022-12-14T17:07:50.050Z,97793.09
2022-12-14T17:10:24.320Z,97792.13
2022-12-14T17:13:03.371Z,97795.19
2022-12-14T17:15:35.299Z,97791.75
2022-12-14T17:18:07.951Z,97798.00
2022-12-14T17:20:40.650Z,97794.06
2022-12-14T17:23:17.989Z,97803.81
2022-12-14T17:25:50.841Z,97805.88
2022-12-14T17:28:30.632Z,97809.19
2022-12-14T17:31:03.201Z,97805.25
2022-12-14T17:33:35.151Z,97803.38
2022-12-14T17:36:07.010Z,97791.91
2022-12-14T17:38:38.669Z,97801.13
2022-12-14T17:41:30.556Z,97791.50
2022-12-14T17:44:03.806Z,97793.38
2022-12-14T17:46:35.610Z,97798.56
2022-12-14T17:49:07.424Z,97794.78
2022-12-14T17:51:44.148Z,97793.13
2022-12-14T17:54:27.359Z,97794.06
2022-12-14T17:57:01.035Z,97795.00
2022-12-14T17:59:37.004Z,97801.53
2022-12-14T18:02:26.814Z,97804.00
2022-12-14T18:04:59.305Z,97804.31
2022-12-14T18:07:31.010Z,97813.00
2022-12-14T18:10:02.708Z,97809.72
2022-12-14T18:12:34.280Z,97804.13
2022-12-14T18:15:16.937Z,97803.88
2022-12-14T18:17:49.304Z,97810.56
2022-12-14T18:20:23.437Z,97817.38
2022-12-14T18:22:58.077Z,97812.06
2022-12-14T18:25:37.479Z,97814.13
2022-12-14T18:28:11.788Z,97813.03
2022-12-14T18:30:50.745Z,97811.03
2022-12-14T18:33:28.920Z,97815.69
2022-12-14T18:36:01.011Z,97815.16
2022-12-14T18:38:33.890Z,97822.66
2022-12-14T18:41:06.671Z,97821.00
2022-12-14T18:43:43.425Z,97824.00
2022-12-14T18:46:16.370Z,97822.88
2022-12-14T18:48:48.569Z,97820.69
2022-12-14T18:51:23.996Z,97827.63
2022-12-14T18:53:58.065Z,97824.72
2022-12-14T18:56:29.773Z,97828.84
2022-12-14T18:59:01.395Z,97837.75
2022-12-14T19:01:33.271Z,97834.19
2022-12-14T19:04:08.415Z,97840.06
2022-12-14T19:06:49.970Z,97837.22
2022-12-14T19:09:21.986Z,97836.50
2022-12-14T19:11:53.687Z,97839.41
2022-12-14T19:14:25.983Z,97835.88
2022-12-14T19:16:57.718Z,97841.47
2022-12-14T19:19:36.847Z,97847.06
2022-12-14T19:22:12.691Z,97849.47
2022-12-14T19:24:47.788Z,97850.59
2022-12-14T19:27:58.863Z,97850.53
2022-12-14T19:30:22.719Z,97849.16
2022-12-14T19:32:56.846Z,97853.78
2022-12-14T19:35:29.379Z,97851.31
2022-12-14T19:38:01.064Z,97858.13
2022-12-14T19:40:32.949Z,97854.84
2022-12-14T19:43:04.644Z,97858.97
2022-12-14T19:45:40.664Z,97863.63
2022-12-14T19:48:13.547Z,97862.91
2022-12-14T19:50:49.239Z,97870.25
2022-12-14T19:53:24.304Z,97875.44
2022-12-14T19:55:55.966Z,97875.41
2022-12-14T19:58:29.224Z,97873.75
2022-12-14T20:01:01.432Z,97875.56
2022-12-14T20:03:33.614Z,97878.72
2022-12-14T20:06:07.010Z,97871.81
2022-12-14T20:08:38.674Z,97871.19
2022-12-14T20:11:11.406Z,97875.00
2022-12-14T20:13:46.046Z,97869.16
2022-12-14T20:16:18.877Z,97871.50
2022-12-14T20:18:50.817Z,97875.56
2022-12-14T20:21:25.607Z,97872.16
2022-12-14T20:23:57.814Z,97879.69
2022-12-14T20:26:32.064Z,97880.94
2022-12-14T20:29:06.016Z,97875.63
2022-12-14T20:31:38.020Z,97872.75
2022-12-14T20:34:13.040Z,97870.75
2022-12-14T20:36:44.641Z,97872.22
2022-12-14T20:39:16.313Z,97881.53
2022-12-14T20:41:48.128Z,97880.56
2022-12-14T20:44:19.824Z,97880.41
2022-12-14T20:46:51.914Z,97888.06
2022-12-14T20:49:29.515Z,97885.47
2022-12-14T20:52:03.209Z,97883.72
2022-12-14T20:54:34.944Z,97893.66
2022-12-14T20:57:06.633Z,97889.00
2022-12-14T20:59:38.393Z,97892.03
2022-12-14T21:02:16.958Z,97898.97
2022-12-14T21:04:49.007Z,97903.38
2022-12-14T21:07:25.881Z,97907.72
2022-12-14T21:09:58.031Z,97910.16
2022-12-14T21:12:29.713Z,97915.16
2022-12-14T21:15:01.953Z,97912.28
2022-12-14T21:17:33.775Z,97916.47
2022-12-14T21:20:09.097Z,97913.47
2022-12-14T21:22:40.765Z,97923.41
2022-12-14T21:25:12.338Z,97928.59
2022-12-14T21:27:44.017Z,97928.09
2022-12-14T21:30:16.957Z,97929.31
2022-12-14T21:32:48.529Z,97926.50
2022-12-14T21:35:20.970Z,97933.75
2022-12-14T21:37:52.610Z,97939.59
2022-12-14T21:40:42.980Z,97952.81
2022-12-14T21:43:15.163Z,97954.31
2022-12-14T21:45:46.758Z,97953.94
2022-12-14T21:48:18.565Z,97950.66
2022-12-14T21:50:50.357Z,97956.09
2022-12-14T21:53:22.077Z,97950.75
2022-12-14T21:56:13.650Z,97967.53
2022-12-14T21:58:52.999Z,97962.38
2022-12-14T22:01:25.944Z,97968.00
2022-12-14T22:03:58.813Z,97973.16
2022-12-14T22:06:31.766Z,97973.91
2022-12-14T22:09:04.314Z,97977.22
2022-12-14T22:11:35.908Z,97982.38
2022-12-14T22:14:15.022Z,97983.63
2022-12-14T22:16:47.644Z,97984.47
2022-12-14T22:19:22.569Z,97982.56
2022-12-14T22:21:54.084Z,97987.19
2022-12-14T22:24:28.053Z,97990.75
2022-12-14T22:26:59.726Z,97994.63
2022-12-14T22:29:31.376Z,97988.78
2022-12-14T22:32:02.992Z,97987.53
2022-12-14T22:34:34.761Z,97996.94
2022-12-14T22:37:06.339Z,98003.63
2022-12-14T22:39:37.907Z,97995.75
2022-12-14T22:42:10.518Z,97999.81
2022-12-14T22:44:42.156Z,98003.22
2022-12-14T22:47:17.208Z,98005.16
2022-12-14T22:49:48.858Z,98006.53
2022-12-14T22:52:24.703Z,98007.59
2022-12-14T22:54:57.136Z,98008.81
2022-12-14T22:57:29.857Z,98009.75
2022-12-14T23:00:07.334Z,98011.16
2022-12-14T23:02:41.514Z,98011.97
2022-12-14T23:05:19.488Z,98014.00
2022-12-14T23:07:51.040Z,98019.28
2022-12-14T23:10:41.258Z,98011.75
2022-12-14T23:13:34.297Z,98019.06
2022-12-14T23:16:24.483Z,98022.41
2022-12-14T23:19:14.564Z,98023.88
2022-12-14T23:22:04.689Z,98024.56
2022-12-14T23:24:54.928Z,98041.03
2022-12-14T23:27:45.244Z,98039.50
2022-12-14T23:30:35.764Z,98042.50
2022-12-14T23:33:28.406Z,98047.44
2022-12-14T23:36:20.034Z,98058.22
2022-12-14T23:39:10.183Z,98053.88
2022-12-14T23:42:00.344Z,98049.25
2022-12-14T23:44:50.682Z,98055.25
2022-12-14T23:47:42.392Z,98059.81
2022-12-14T23:50:32.592Z,98057.91
2022-12-14T23:53:26.673Z,98066.38
2022-12-14T23:56:18.593Z,98074.72
2022-12-14T23:59:13.332Z,98072.66
